Time;durP1;ratioP1;P1;durP2;ratioP2;P2;SDS_P1;SDS_P2;PMS_P1;PMS_P2;Temp;Humidity;BMP_temperature;BMP_pressure;BME280_temperature;BME280_humidity;BME280_pressure;Samples;Min_cycle;Max_cycle;Signal;HPM_P1;HPM_P2
2022/09/14 00:01:20;;;;;;;15.55;10.90;;;;;;;14.47;85.96;99677.69;1766115;80;21038;-79
2022/09/14 00:03:46;;;;;;;12.98;11.12;;;;;;;14.45;86.01;99681.12;1762995;81;21066;-78
2022/09/14 00:06:14;;;;;;;12.98;11.05;;;;;;;14.44;86.05;99674.09;1768645;80;21027;-78
2022/09/14 00:08:41;;;;;;;14.50;11.30;;;;;;;14.42;86.13;99682.89;1769927;81;21018;-79
2022/09/14 00:11:12;;;;;;;14.65;11.57;;;;;;;14.41;86.19;99683.91;1770372;80;21034;-79
2022/09/14 00:13:40;;;;;;;11.35;9.68;;;;;;;14.38;86.24;99677.64;1765663;80;21065;-78
2022/09/14 00:16:14;;;;;;;17.23;11.10;;;;;;;14.38;86.30;99675.47;1757481;80;21086;-77
2022/09/14 00:18:41;;;;;;;14.43;10.82;;;;;;;14.35;86.38;99680.75;1744503;81;21952;-77
2022/09/14 00:21:08;;;;;;;14.23;10.05;;;;;;;14.32;86.42;99679.77;1758201;81;20999;-77
2022/09/14 00:23:36;;;;;;;12.20;10.60;;;;;;;14.28;86.56;99674.55;1756431;81;21545;-77
2022/09/14 00:26:09;;;;;;;12.70;11.40;;;;;;;14.25;86.52;99666.89;1756650;80;21094;-78
2022/09/14 00:28:40;;;;;;;13.58;10.50;;;;;;;14.24;86.58;99676.52;1759555;81;21661;-77
2022/09/14 00:31:07;;;;;;;14.07;10.53;;;;;;;14.20;86.64;99668.06;1759118;80;21973;-77
2022/09/14 00:33:33;;;;;;;12.40;10.68;;;;;;;14.17;86.68;99667.15;1756942;81;21007;-77
2022/09/14 00:36:11;;;;;;;12.15;10.70;;;;;;;14.16;86.72;99665.50;1757374;81;21085;-77
2022/09/14 00:38:38;;;;;;;13.03;11.50;;;;;;;14.14;86.78;99666.23;1757351;81;21078;-77
2022/09/14 00:41:06;;;;;;;11.40;10.30;;;;;;;14.13;86.84;99675.81;1761292;81;21003;-77
2022/09/14 00:43:32;;;;;;;11.65;9.85;;;;;;;14.10;86.90;99663.67;1758830;80;21131;-77
2022/09/14 00:46:01;;;;;;;12.82;10.65;;;;;;;14.08;86.96;99665.72;1757201;81;21547;-77
2022/09/14 00:48:27;;;;;;;13.40;10.70;;;;;;;14.06;87.01;99663.77;1757267;80;21050;-77
2022/09/14 00:50:53;;;;;;;15.28;10.28;;;;;;;14.04;87.04;99668.50;1756216;80;21018;-77
2022/09/14 00:53:19;;;;;;;15.68;11.25;;;;;;;14.01;87.10;99672.95;1760302;80;21047;-77
2022/09/14 00:55:45;;;;;;;14.47;10.98;;;;;;;13.99;87.14;99666.98;1765821;80;21359;-77
2022/09/14 00:58:11;;;;;;;14.53;10.68;;;;;;;13.96;87.20;99663.39;1765095;80;20975;-77
2022/09/14 01:00:37;;;;;;;14.73;10.40;;;;;;;13.94;87.23;99666.78;1758081;80;22177;-77
2022/09/14 01:03:03;;;;;;;12.10;10.00;;;;;;;13.93;87.26;99664.61;1758617;80;21041;-78
2022/09/14 01:06:08;;;;;;;11.12;9.95;;;;;;;13.93;87.34;99665.16;1768807;80;21061;-77
2022/09/14 01:09:12;;;;;;;13.45;10.53;;;;;;;13.92;87.38;99668.86;1761872;80;21511;-77
2022/09/14 01:11:59;;;;;;;12.65;10.30;;;;;;;13.91;87.44;99665.86;1760978;81;21113;-77
2022/09/14 01:14:56;;;;;;;12.40;10.30;;;;;;;13.89;87.46;99667.94;1760151;80;21058;-77
2022/09/14 01:17:34;;;;;;;14.78;10.05;;;;;;;13.87;87.52;99671.33;1738030;80;21335;-78
2022/09/14 01:20:26;;;;;;;14.07;10.60;;;;;;;13.85;87.58;99660.00;1756231;80;21022;-79
2022/09/14 01:23:08;;;;;;;13.32;10.75;;;;;;;13.73;87.60;99658.98;1762806;80;21108;-77
2022/09/14 01:26:04;;;;;;;13.50;10.38;;;;;;;13.81;87.67;99664.13;1763187;80;21015;-77
2022/09/14 01:29:02;;;;;;;12.88;10.63;;;;;;;13.79;87.72;99664.87;1760754;80;21049;-77
2022/09/14 01:31:53;;;;;;;13.62;10.38;;;;;;;13.78;87.77;99657.85;1762089;80;21662;-77
2022/09/14 01:34:50;;;;;;;15.45;10.98;;;;;;;13.76;87.82;99657.22;1761009;80;21038;-77
2022/09/14 01:37:24;;;;;;;12.37;10.55;;;;;;;13.74;87.88;99657.45;1761318;80;21007;-77
2022/09/14 01:39:56;;;;;;;14.07;10.10;;;;;;;13.71;87.94;99659.20;1761119;80;21318;-77
2022/09/14 01:42:22;;;;;;;14.98;10.53;;;;;;;13.68;87.98;99652.92;1767914;80;20999;-77
2022/09/14 01:44:53;;;;;;;13.60;10.63;;;;;;;13.68;88.05;99658.28;1759793;80;21053;-77
2022/09/14 01:47:46;;;;;;;14.28;11.15;;;;;;;13.67;88.11;99654.46;1762780;80;21105;-77
2022/09/14 01:50:23;;;;;;;11.73;10.38;;;;;;;13.66;88.14;99658.16;1765113;80;21401;-77
2022/09/14 01:52:54;;;;;;;16.12;11.15;;;;;;;13.65;88.18;99652.52;1730457;81;21526;-77
2022/09/14 01:55:31;;;;;;;11.35;10.18;;;;;;;13.61;88.25;99650.77;1756575;80;21078;-77
2022/09/14 01:58:08;;;;;;;14.68;10.98;;;;;;;13.59;88.29;99650.64;1759767;80;21017;-77
2022/09/14 02:00:38;;;;;;;15.23;10.45;;;;;;;13.56;88.32;99657.77;1744241;81;21084;-77
2022/09/14 02:03:18;;;;;;;14.68;10.85;;;;;;;13.55;88.38;99650.23;1760339;80;21074;-76
2022/09/14 02:05:53;;;;;;;17.67;10.18;;;;;;;13.55;88.42;99650.75;1725262;82;21078;-76
2022/09/14 02:08:19;;;;;;;12.90;10.30;;;;;;;13.52;88.44;99646.64;1758157;80;21056;-76
2022/09/14 02:10:45;;;;;;;12.25;10.13;;;;;;;13.54;88.51;99641.09;1748359;80;21038;-76
2022/09/14 02:13:11;;;;;;;11.57;9.73;;;;;;;13.52;88.53;99637.27;1749194;81;21073;-76
2022/09/14 02:15:37;;;;;;;12.53;10.00;;;;;;;13.50;88.56;99638.00;1740083;81;21353;-79
2022/09/14 02:18:03;;;;;;;13.78;10.38;;;;;;;13.49;88.60;99634.48;1772053;80;21678;-76
2022/09/14 02:20:46;;;;;;;12.33;9.93;;;;;;;13.47;88.62;99629.84;1741234;81;21018;-76
2022/09/14 02:23:12;;;;;;;12.60;8.98;;;;;;;13.45;88.68;99625.22;1763524;80;21401;-77
2022/09/14 02:25:39;;;;;;;10.20;8.65;;;;;;;13.43;88.71;99618.43;1759255;80;20993;-77
2022/09/14 02:28:06;;;;;;;11.75;9.10;;;;;;;13.42;88.74;99617.60;1754565;80;21889;-77
2022/09/14 02:30:44;;;;;;;13.83;10.35;;;;;;;13.37;88.74;99614.70;1741847;81;21050;-77
2022/09/14 02:33:18;;;;;;;15.08;11.05;;;;;;;13.34;88.76;99619.65;1732749;80;21612;-76
2022/09/14 02:35:47;;;;;;;11.05;9.53;;;;;;;13.31;88.81;99617.39;1753365;80;21041;-77
2022/09/14 02:39:01;;;;;;;11.53;8.98;;;;;;;13.27;88.83;99614.30;1720158;81;21013;-77
2022/09/14 02:42:04;;;;;;;12.33;9.35;;;;;;;13.26;88.85;99610.00;1757123;80;21695;-76
2022/09/14 02:44:47;;;;;;;10.82;9.35;;;;;;;13.23;88.87;99613.60;1750992;80;22132;-77
2022/09/14 02:47:48;;;;;;;12.68;9.35;;;;;;;13.18;88.90;99618.73;1724669;80;21466;-77
2022/09/14 02:50:34;;;;;;;13.15;10.25;;;;;;;13.16;88.92;99622.95;1733518;81;21585;-77
2022/09/14 02:53:14;;;;;;;11.33;9.00;;;;;;;13.11;88.92;99620.59;1762346;80;21038;-78
2022/09/14 02:55:45;;;;;;;12.47;9.58;;;;;;;13.09;88.94;99619.95;1744617;81;21297;-77
2022/09/14 02:58:12;;;;;;;12.07;9.58;;;;;;;13.05;88.96;99622.22;1749162;80;21040;-77
2022/09/14 03:00:41;;;;;;;14.23;9.43;;;;;;;13.05;88.99;99623.55;1765596;80;21041;-77
2022/09/14 03:03:09;;;;;;;14.20;10.10;;;;;;;13.04;88.98;99623.23;1766386;80;21022;-76
2022/09/14 03:05:36;;;;;;;10.88;9.78;;;;;;;13.02;88.98;99627.95;1766459;80;21075;-77
2022/09/14 03:08:02;;;;;;;11.10;9.58;;;;;;;13.03;89.03;99628.27;1763566;80;21158;-76
2022/09/14 03:10:28;;;;;;;11.85;10.05;;;;;;;13.01;89.03;99619.63;1766106;80;21133;-77
2022/09/14 03:12:55;;;;;;;14.45;10.25;;;;;;;13.00;89.08;99615.30;1764467;80;21057;-77
2022/09/14 03:15:21;;;;;;;13.45;10.80;;;;;;;12.99;89.11;99621.67;1741404;80;21053;-76
2022/09/14 03:17:47;;;;;;;14.35;11.38;;;;;;;12.96;89.12;99618.07;1736427;80;21691;-77
2022/09/14 03:20:18;;;;;;;18.17;12.40;;;;;;;12.95;89.15;99619.09;1771073;80;21089;-77
2022/09/14 03:22:45;;;;;;;16.35;11.65;;;;;;;12.94;89.19;99616.12;1757307;80;21050;-77
2022/09/14 03:25:11;;;;;;;19.50;12.05;;;;;;;12.94;89.22;99613.45;1744474;81;21046;-79
2022/09/14 03:27:38;;;;;;;17.75;12.35;;;;;;;12.94;89.26;99610.77;1739997;80;22126;-76
2022/09/14 03:30:05;;;;;;;13.10;11.22;;;;;;;12.93;89.29;99617.14;1730087;81;21026;-77
2022/09/14 03:32:31;;;;;;;14.35;11.38;;;;;;;12.92;89.34;99616.83;1760237;80;21956;-77
2022/09/14 03:34:58;;;;;;;13.03;10.72;;;;;;;12.91;89.35;99608.51;1737366;80;21023;-77
2022/09/14 03:37:25;;;;;;;22.05;11.30;;;;;;;12.90;89.39;99613.55;1731221;80;21060;-77
2022/09/14 03:39:51;;;;;;;14.60;11.08;;;;;;;12.88;89.43;99616.41;1747864;81;21061;-77
2022/09/14 03:42:17;;;;;;;13.25;10.20;;;;;;;12.89;89.47;99610.55;1734323;81;21093;-77
2022/09/14 03:44:43;;;;;;;16.82;11.00;;;;;;;12.90;89.50;99613.55;1740492;80;21180;-76
2022/09/14 03:47:09;;;;;;;16.73;9.75;;;;;;;12.88;89.52;99614.23;1761164;80;21030;-77
2022/09/14 03:49:35;;;;;;;13.43;10.43;;;;;;;12.87;89.54;99616.62;1759361;80;21131;-77
2022/09/14 03:52:02;;;;;;;14.60;9.93;;;;;;;12.84;89.56;99613.03;1758941;80;21707;-77
2022/09/14 03:54:28;;;;;;;17.67;10.25;;;;;;;12.85;89.59;99613.31;1766190;80;21014;-77
2022/09/14 03:56:54;;;;;;;12.88;9.28;;;;;;;12.85;89.62;99608.79;1730345;81;21049;-77
2022/09/14 03:59:20;;;;;;;12.43;9.68;;;;;;;12.86;89.63;99620.33;1702438;83;21868;-77
2022/09/14 04:01:46;;;;;;;13.93;10.68;;;;;;;12.83;89.66;99620.23;1702114;83;21037;-76
2022/09/14 04:04:12;;;;;;;13.15;10.00;;;;;;;12.82;89.70;99619.08;1705372;83;20985;-77
2022/09/14 04:06:38;;;;;;;15.85;10.65;;;;;;;12.83;89.71;99619.39;1702018;84;20949;-76
2022/09/14 04:09:04;;;;;;;14.15;10.35;;;;;;;12.81;89.74;99614.23;1693315;83;22412;-77
2022/09/14 04:11:32;;;;;;;13.78;9.68;;;;;;;12.81;89.75;99618.76;1698672;83;21131;-77
2022/09/14 04:14:02;;;;;;;13.05;9.85;;;;;;;12.81;89.77;99622.77;1733050;82;21021;-77
2022/09/14 04:16:28;;;;;;;12.07;10.03;;;;;;;12.81;89.80;99624.11;1727138;82;21054;-77
2022/09/14 04:18:54;;;;;;;13.10;9.73;;;;;;;12.80;89.82;99623.31;1702037;83;21034;-76
2022/09/14 04:21:23;;;;;;;16.67;11.18;;;;;;;12.82;89.84;99629.78;1714258;83;21509;-77
2022/09/14 04:23:52;;;;;;;13.38;9.83;;;;;;;12.84;89.85;99630.42;1703794;83;22475;-77
2022/09/14 04:26:20;;;;;;;15.18;11.00;;;;;;;12.84;89.87;99631.76;1693069;83;21032;-77
2022/09/14 04:28:46;;;;;;;18.00;10.58;;;;;;;12.84;89.89;99630.42;1699528;83;21110;-77
2022/09/14 04:31:12;;;;;;;15.75;11.83;;;;;;;12.84;89.92;99637.11;1695300;83;21385;-78
2022/09/14 04:33:39;;;;;;;18.98;10.88;;;;;;;12.84;89.96;99633.09;1690596;83;21193;-78
2022/09/14 04:36:12;;;;;;;20.27;15.08;;;;;;;12.83;89.98;99630.09;1701462;84;20973;-78
2022/09/14 04:38:39;;;;;;;22.73;16.80;;;;;;;12.82;90.00;99623.09;1689860;83;21023;-78
2022/09/14 04:41:16;;;;;;;23.83;16.62;;;;;;;12.83;90.02;99627.42;1711813;83;21512;-77
2022/09/14 04:43:44;;;;;;;16.70;14.10;;;;;;;12.83;90.06;99630.09;1683195;83;21021;-78
2022/09/14 04:46:15;;;;;;;20.70;13.90;;;;;;;12.83;90.06;99619.39;1724850;81;21286;-78
2022/09/14 04:48:41;;;;;;;15.40;10.58;;;;;;;12.82;90.11;99620.41;1733638;81;21013;-78
2022/09/14 04:51:12;;;;;;;15.05;10.45;;;;;;;12.80;90.13;99622.48;1717022;81;21077;-78
2022/09/14 04:53:39;;;;;;;15.00;9.83;;;;;;;12.80;90.20;99625.16;1683126;84;21592;-77
2022/09/14 04:56:07;;;;;;;11.53;8.78;;;;;;;12.82;90.22;99629.78;1700215;83;21018;-78
2022/09/14 04:58:34;;;;;;;11.22;8.85;;;;;;;12.83;90.20;99632.78;1715789;83;21925;-78
2022/09/14 05:01:07;;;;;;;16.52;8.83;;;;;;;12.84;90.25;99629.08;1724415;83;21034;-78
2022/09/14 05:03:34;;;;;;;14.70;8.68;;;;;;;12.83;90.25;99621.56;1713558;83;21618;-78
2022/09/14 05:06:03;;;;;;;11.57;8.60;;;;;;;12.84;90.27;99630.42;1717285;83;21049;-78
2022/09/14 05:08:29;;;;;;;11.70;9.03;;;;;;;12.86;90.30;99625.67;1720836;83;21054;-78
2022/09/14 05:10:56;;;;;;;16.45;11.73;;;;;;;12.88;90.31;99624.94;1722805;82;21129;-78
2022/09/14 05:13:23;;;;;;;20.72;15.13;;;;;;;12.91;90.33;99628.04;1716814;82;21025;-78
2022/09/14 05:15:49;;;;;;;24.55;19.60;;;;;;;13.14;90.42;99627.70;1723968;83;21593;-78
2022/09/14 05:18:17;;;;;;;26.12;20.27;;;;;;;13.35;90.42;99619.97;1716990;82;21092;-77
2022/09/14 05:20:43;;;;;;;24.77;20.50;;;;;;;13.42;90.32;99621.62;1715484;83;21030;-77
2022/09/14 05:23:09;;;;;;;23.42;18.42;;;;;;;13.45;90.26;99619.86;1720601;83;21376;-79
2022/09/14 05:25:35;;;;;;;23.38;18.67;;;;;;;13.54;90.27;99622.34;1715117;83;21066;-79
2022/09/14 05:28:01;;;;;;;28.23;20.00;;;;;;;13.68;90.24;99626.64;1714016;83;21198;-77
2022/09/14 05:30:28;;;;;;;27.70;18.55;;;;;;;13.91;90.26;99619.78;1688902;83;21570;-77
2022/09/14 05:32:54;;;;;;;32.80;19.65;;;;;;;14.52;90.27;99617.20;1695873;83;20930;-77
2022/09/14 05:35:20;;;;;;;22.55;15.95;;;;;;;14.95;89.68;99612.27;1703229;83;21059;-78
2022/09/14 05:37:46;;;;;;;18.92;14.03;;;;;;;14.83;89.36;99598.44;1714043;83;21010;-79
2022/09/14 05:40:12;;;;;;;17.05;12.45;;;;;;;14.78;89.35;99599.59;1721121;83;21280;-78
2022/09/14 05:42:38;;;;;;;15.78;13.43;;;;;;;14.83;89.43;99607.83;1715300;83;21002;-78
2022/09/14 05:45:06;;;;;;;19.52;11.90;;;;;;;14.91;89.61;99606.23;1694515;83;21102;-78
2022/09/14 05:47:32;;;;;;;14.28;11.20;;;;;;;14.92;89.51;99614.57;1714687;83;21908;-78
2022/09/14 05:49:58;;;;;;;13.88;10.72;;;;;;;14.97;89.47;99614.75;1702380;83;21005;-78
2022/09/14 05:52:24;;;;;;;16.30;13.72;;;;;;;15.06;89.40;99616.12;1690484;83;21100;-79
2022/09/14 05:54:50;;;;;;;19.52;16.45;;;;;;;15.20;89.29;99620.35;1714884;83;21080;-79
2022/09/14 05:57:17;;;;;;;24.47;16.42;;;;;;;15.44;89.21;99608.81;1713274;83;21007;-79
2022/09/14 05:59:43;;;;;;;25.90;17.60;;;;;;;15.42;89.03;99611.39;1716472;83;21073;-79
2022/09/14 06:02:09;;;;;;;18.42;13.58;;;;;;;15.30;88.91;99602.42;1710384;83;21026;-79
2022/09/14 06:04:36;;;;;;;15.88;12.75;;;;;;;15.23;88.68;99605.17;1716622;83;21080;-78
2022/09/14 06:07:02;;;;;;;22.27;14.18;;;;;;;15.17;88.56;99599.30;1692894;82;21058;-79
2022/09/14 06:09:28;;;;;;;16.27;12.95;;;;;;;15.12;88.37;99599.16;1728212;81;21011;-79
2022/09/14 06:11:54;;;;;;;18.40;11.35;;;;;;;15.23;88.19;99601.14;1702898;83;21687;-77
2022/09/14 06:14:20;;;;;;;13.78;10.75;;;;;;;15.20;87.98;99606.92;1726602;83;21063;-77
2022/09/14 06:16:46;;;;;;;14.75;11.78;;;;;;;15.06;87.82;99609.41;1708059;82;21049;-78
2022/09/14 06:19:14;;;;;;;12.60;9.88;;;;;;;14.93;87.63;99610.34;1686183;83;21580;-78
2022/09/14 06:21:40;;;;;;;14.20;8.40;;;;;;;14.87;87.47;99610.39;1716416;83;21015;-77
2022/09/14 06:24:13;;;;;;;8.58;6.45;;;;;;;14.76;87.26;99611.08;1718809;83;21614;-77
2022/09/14 06:26:39;;;;;;;15.88;9.78;;;;;;;14.72;87.12;99608.52;1710834;82;21191;-78
2022/09/14 06:29:06;;;;;;;15.98;9.58;;;;;;;14.71;86.97;99609.55;1710542;82;21134;-79
2022/09/14 06:31:32;;;;;;;14.07;7.17;;;;;;;14.70;86.83;99613.29;1713961;83;21053;-78
2022/09/14 06:33:58;;;;;;;27.32;11.20;;;;;;;14.72;86.73;99616.56;1714566;83;21064;-79
2022/09/14 06:36:26;;;;;;;19.70;14.60;;;;;;;14.78;86.66;99614.35;1709764;83;21976;-79
2022/09/14 06:38:52;;;;;;;18.65;14.13;;;;;;;14.83;86.59;99610.52;1749937;81;21006;-79
2022/09/14 06:41:22;;;;;;;13.93;11.40;;;;;;;14.91;86.50;99610.27;1730230;81;20999;-77
2022/09/14 06:43:48;;;;;;;16.17;11.50;;;;;;;15.06;86.42;99612.09;1727121;82;21062;-78
2022/09/14 06:46:23;;;;;;;20.17;13.38;;;;;;;15.16;86.30;99613.80;1700213;82;21912;-79
2022/09/14 06:48:56;;;;;;;15.28;9.10;;;;;;;15.24;86.23;99607.30;1719299;83;21038;-79
2022/09/14 06:51:27;;;;;;;13.78;7.87;;;;;;;15.25;86.11;99607.09;1730578;81;21053;-78
2022/09/14 06:53:55;;;;;;;16.45;8.73;;;;;;;15.34;86.03;99609.80;1741026;81;20998;-79
2022/09/14 06:56:21;;;;;;;10.80;6.17;;;;;;;15.45;85.94;99617.14;1714512;82;21743;-78
2022/09/14 06:58:48;;;;;;;11.65;5.10;;;;;;;15.54;85.77;99619.59;1736305;81;21052;-78
2022/09/14 07:01:16;;;;;;;10.85;5.50;;;;;;;15.60;85.61;99622.73;1736728;81;21141;-77
2022/09/14 07:03:42;;;;;;;7.78;4.30;;;;;;;15.59;85.43;99619.22;1713114;83;21642;-76
2022/09/14 07:06:12;;;;;;;7.65;3.90;;;;;;;15.61;85.32;99614.98;1702258;83;21017;-76
2022/09/14 07:08:38;;;;;;;;;;;;;;;15.71;85.19;99613.95;1729049;82;21017;-76
2022/09/14 07:11:06;;;;;;;8.28;4.00;;;;;;;15.84;85.04;99615.14;1715293;83;20611;-76
2022/09/14 07:13:32;;;;;;;8.65;4.00;;;;;;;16.00;84.89;99610.54;1700984;83;21119;-76
2022/09/14 07:15:58;;;;;;;9.78;3.80;;;;;;;16.11;84.69;99617.86;1708143;83;21045;-78
2022/09/14 07:18:31;;;;;;;11.08;4.70;;;;;;;16.08;84.47;99610.22;1703980;83;21091;-77
2022/09/14 07:20:55;;;;;;;10.13;6.87;;;;;;;16.08;84.32;99610.22;1714062;83;21128;-77
2022/09/14 07:23:22;;;;;;;11.35;4.85;;;;;;;16.14;84.12;99613.90;1660313;83;21042;-78
2022/09/14 07:25:52;;;;;;;15.53;5.35;;;;;;;16.17;83.93;99614.27;1723215;83;21119;-78
2022/09/14 07:28:18;;;;;;;13.78;7.03;;;;;;;16.13;83.70;99600.97;1700928;83;21542;-78
2022/09/14 07:30:44;;;;;;;11.63;5.67;;;;;;;16.20;83.58;99605.74;1701371;83;21886;-77
2022/09/14 07:33:11;;;;;;;10.43;6.08;;;;;;;16.35;83.41;99611.56;1699695;83;21034;-78
2022/09/14 07:35:37;;;;;;;9.65;6.30;;;;;;;16.42;83.18;99618.20;1675623;83;21070;-77
2022/09/14 07:38:03;;;;;;;13.95;8.08;;;;;;;16.46;83.07;99613.49;1746816;81;21148;-78
2022/09/14 07:40:29;;;;;;;12.40;8.00;;;;;;;16.47;82.83;99614.29;1695238;83;21049;-78
2022/09/14 07:42:55;;;;;;;13.68;6.37;;;;;;;16.52;82.65;99606.37;1708454;83;21028;-79
2022/09/14 07:45:22;;;;;;;11.48;5.35;;;;;;;16.64;82.54;99611.84;1669574;83;21045;-79
2022/09/14 07:47:48;;;;;;;10.35;3.67;;;;;;;16.71;82.33;99607.98;1687762;83;21088;-79
2022/09/14 07:50:14;;;;;;;8.95;5.55;;;;;;;16.74;82.05;99600.81;1703661;83;21601;-78
2022/09/14 07:52:40;;;;;;;8.63;5.92;;;;;;;16.81;81.90;99606.10;1723661;81;21110;-79
2022/09/14 07:55:08;;;;;;;7.80;5.65;;;;;;;16.84;81.64;99609.68;1663038;83;21090;-79
2022/09/14 07:57:34;;;;;;;8.88;3.75;;;;;;;16.90;81.48;99612.80;1727977;81;21074;-78
2022/09/14 08:00:02;;;;;;;9.93;5.72;;;;;;;17.07;81.30;99608.38;1679313;83;21104;-79
2022/09/14 08:02:29;;;;;;;7.67;3.02;;;;;;;17.14;81.03;99606.41;1714537;82;21184;-79
2022/09/14 08:04:55;;;;;;;5.15;2.58;;;;;;;17.15;80.75;99609.40;1719821;83;21088;-79
2022/09/14 08:07:21;;;;;;;6.35;2.72;;;;;;;17.17;80.55;99607.28;1721875;83;21069;-79
2022/09/14 08:09:47;;;;;;;8.63;3.50;;;;;;;17.26;80.26;99605.91;1714292;83;21109;-79
2022/09/14 08:12:15;;;;;;;6.25;3.30;;;;;;;17.39;80.05;99600.28;1715764;82;21097;-80
2022/09/14 08:14:41;;;;;;;8.95;3.00;;;;;;;17.49;79.74;99601.05;1722725;82;21682;-73
2022/09/14 08:17:09;;;;;;;6.25;2.55;;;;;;;17.44;79.37;99599.08;1687654;83;21101;-79
2022/09/14 08:19:36;;;;;;;8.43;2.98;;;;;;;17.39;79.11;99605.67;1722118;81;21030;-79
2022/09/14 08:22:03;;;;;;;7.00;2.52;;;;;;;17.32;78.82;99602.27;1694860;83;21141;-79
2022/09/14 08:24:30;;;;;;;15.95;2.70;;;;;;;17.43;78.63;99597.42;1693151;83;21341;-80
2022/09/14 08:26:56;;;;;;;6.65;2.75;;;;;;;17.52;78.37;99606.52;1717567;82;21141;-80
2022/09/14 08:29:22;;;;;;;6.87;2.80;;;;;;;17.65;78.19;99601.73;1718686;82;21103;-81
2022/09/14 08:31:50;;;;;;;6.47;2.67;;;;;;;17.79;77.91;99607.70;1714610;82;21089;-80
2022/09/14 08:34:16;;;;;;;4.08;2.45;;;;;;;17.95;77.65;99605.09;1719685;82;21049;-81
2022/09/14 08:36:43;;;;;;;4.00;2.17;;;;;;;18.05;77.52;99596.39;1719793;82;21125;-81
2022/09/14 08:39:13;;;;;;;6.75;2.55;;;;;;;18.09;77.20;99594.86;1706609;83;21203;-80
2022/09/14 08:41:53;;;;;;;6.92;2.12;;;;;;;18.19;76.99;99592.92;1719068;83;21577;-81
2022/09/14 08:44:32;;;;;;;6.97;2.45;;;;;;;18.12;76.58;99595.73;1715864;83;21030;-80
2022/09/14 08:47:11;;;;;;;5.90;2.17;;;;;;;18.15;76.34;99595.28;1716922;82;23111;-80
2022/09/14 08:50:12;;;;;;;6.05;1.80;;;;;;;18.20;76.05;99594.55;1736530;81;21037;-79
2022/09/14 08:52:45;;;;;;;9.40;2.40;;;;;;;18.26;75.71;99593.61;1717857;82;21105;-79
2022/09/14 08:55:35;;;;;;;5.65;2.85;;;;;;;18.32;75.28;99590.77;1698786;82;21087;-80
2022/09/14 08:58:30;;;;;;;8.40;2.42;;;;;;;18.34;74.82;99600.78;1700524;83;21595;-80
2022/09/14 09:01:17;;;;;;;8.98;2.60;;;;;;;18.37;74.52;99600.30;1700931;83;21137;-79
2022/09/14 09:04:18;;;;;;;10.20;2.22;;;;;;;18.37;74.23;99597.59;1702866;83;22195;-80
2022/09/14 09:06:56;;;;;;;4.78;1.85;;;;;;;18.46;73.96;99596.17;1700213;83;21177;-79
2022/09/14 09:09:27;;;;;;;6.12;2.95;;;;;;;18.44;73.55;99600.98;1702205;83;21081;-79
2022/09/14 09:11:54;;;;;;;6.55;3.30;;;;;;;18.45;73.27;99605.33;1708835;83;21043;-80
2022/09/14 09:14:30;;;;;;;5.92;1.80;;;;;;;18.40;72.89;99595.77;1708105;83;21057;-79
2022/09/14 09:17:00;;;;;;;6.17;2.05;;;;;;;18.35;72.66;99598.38;1710137;83;21070;-79
2022/09/14 09:19:31;;;;;;;5.05;2.40;;;;;;;18.21;72.29;99594.31;1710457;83;21284;-79
2022/09/14 09:21:57;;;;;;;5.20;1.90;;;;;;;18.06;71.94;99593.99;1714272;83;21605;-79
2022/09/14 09:24:29;;;;;;;6.42;2.25;;;;;;;18.05;71.70;99593.69;1710567;82;21092;-79
2022/09/14 09:26:55;;;;;;;8.08;2.15;;;;;;;18.15;71.54;99583.14;1728944;81;21088;-80
2022/09/14 09:29:21;;;;;;;3.40;1.67;;;;;;;18.26;71.35;99586.30;1730428;82;20989;-80
2022/09/14 09:31:55;;;;;;;5.92;2.95;;;;;;;18.39;71.13;99583.34;1701458;83;21510;-80
2022/09/14 09:34:27;;;;;;;4.83;1.47;;;;;;;18.42;70.86;99584.21;1740769;81;21050;-80
2022/09/14 09:36:54;;;;;;;4.78;1.50;;;;;;;18.40;70.52;99586.88;1700629;83;21022;-81
2022/09/14 09:39:24;;;;;;;7.28;2.98;;;;;;;18.46;70.40;99584.55;1698764;83;21061;-79
2022/09/14 09:42:04;;;;;;;5.70;1.75;;;;;;;18.47;70.10;99582.15;1711994;83;21082;-79
2022/09/14 09:44:30;;;;;;;6.12;1.77;;;;;;;18.53;69.87;99576.33;1686757;83;21518;-80
2022/09/14 09:46:58;;;;;;;4.97;1.67;;;;;;;18.62;69.60;99578.92;1664862;83;21076;-79
2022/09/14 09:49:33;;;;;;;4.33;1.73;;;;;;;18.75;69.35;99575.94;1700928;84;21539;-79
2022/09/14 09:52:11;;;;;;;7.85;2.22;;;;;;;18.88;69.06;99572.92;1708004;83;21114;-80
2022/09/14 09:54:38;;;;;;;8.20;1.47;;;;;;;18.96;68.87;99575.23;1709356;82;21074;-79
2022/09/14 09:57:08;;;;;;;4.83;1.55;;;;;;;19.08;68.55;99576.48;1704942;83;22284;-80
2022/09/14 09:59:40;;;;;;;5.62;1.40;;;;;;;19.12;68.44;99581.17;1705143;83;29203;-79
2022/09/14 10:02:27;;;;;;;5.90;1.60;;;;;;;19.20;68.30;99574.02;1731627;81;21088;-80
2022/09/14 10:05:18;;;;;;;3.67;1.20;;;;;;;19.35;68.02;99568.83;1722606;82;21089;-80
2022/09/14 10:08:02;;;;;;;7.92;1.85;;;;;;;19.35;67.74;99559.36;1714882;83;21110;-80
2022/09/14 10:10:41;;;;;;;5.42;1.65;;;;;;;19.53;67.47;99565.63;1714785;83;21114;-79
2022/09/14 10:13:31;;;;;;;6.03;1.70;;;;;;;19.64;67.18;99562.80;1722575;82;21535;-79
2022/09/14 10:16:07;;;;;;;;;;;;;;;19.64;67.03;99559.27;1703948;84;21351;-80
2022/09/14 10:18:34;;;;;;;6.08;2.30;;;;;;;19.63;66.80;99565.77;1688205;83;20210;-80
2022/09/14 10:21:05;;;;;;;3.50;1.52;;;;;;;19.63;66.64;99561.18;1699997;83;21528;-80
2022/09/14 10:23:36;;;;;;;4.17;1.55;;;;;;;19.62;66.48;99564.12;1711389;83;21089;-79
2022/09/14 10:26:18;;;;;;;6.30;1.57;;;;;;;19.54;66.16;99555.06;1728916;81;21100;-79
2022/09/14 10:28:46;;;;;;;9.60;1.77;;;;;;;19.51;65.96;99551.52;1725902;81;21070;-80
2022/09/14 10:31:21;;;;;;;5.50;1.72;;;;;;;19.51;65.65;99551.52;1709968;83;21659;-82
2022/09/14 10:33:55;;;;;;;3.30;1.17;;;;;;;19.58;65.52;99552.16;1707600;83;21034;-80
2022/09/14 10:36:32;;;;;;;6.75;1.70;;;;;;;19.63;65.42;99544.95;1682187;83;21309;-79
2022/09/14 10:39:19;;;;;;;6.95;2.35;;;;;;;19.68;65.27;99546.88;1716673;83;21025;-82
2022/09/14 10:42:06;;;;;;;7.25;1.80;;;;;;;19.75;65.06;99536.70;1716070;83;21082;-79
2022/09/14 10:44:55;;;;;;;6.90;2.40;;;;;;;19.73;64.94;99551.84;1721406;83;21058;-81
2022/09/14 10:47:39;;;;;;;6.35;2.40;;;;;;;19.86;64.89;99537.13;1720763;83;21072;-79
2022/09/14 10:50:41;;;;;;;6.03;2.30;;;;;;;19.92;64.79;99534.75;1716641;83;21087;-79
2022/09/14 10:53:15;;;;;;;8.20;2.02;;;;;;;20.14;64.61;99532.86;1729842;81;21527;-80
2022/09/14 10:55:58;;;;;;;4.67;1.60;;;;;;;20.27;64.51;99536.56;1708068;82;21070;-80
2022/09/14 10:58:38;;;;;;;4.22;1.62;;;;;;;20.37;64.44;99532.60;1701617;82;21562;-80
2022/09/14 11:01:25;;;;;;;4.78;1.32;;;;;;;20.44;64.20;99535.14;1705863;83;21129;-81
2022/09/14 11:04:28;;;;;;;4.83;1.92;;;;;;;20.38;63.98;99526.13;1711139;83;22143;-81
2022/09/14 11:07:14;;;;;;;3.22;1.60;;;;;;;20.46;63.80;99528.09;1712759;83;21609;-81
2022/09/14 11:10:02;;;;;;;4.17;1.55;;;;;;;20.33;63.57;99534.20;1699016;83;21342;-78
2022/09/14 11:12:43;;;;;;;6.85;1.67;;;;;;;20.24;63.36;99534.86;1716345;82;21073;-80
2022/09/14 11:15:41;;;;;;;7.80;1.90;;;;;;;20.19;63.18;99530.23;1714182;83;21107;-79
2022/09/14 11:18:12;;;;;;;5.65;1.60;;;;;;;20.18;63.10;99529.94;1704906;82;21328;-80
2022/09/14 11:21:24;;;;;;;5.85;2.15;;;;;;;20.14;62.86;99524.74;1707529;83;21003;-80
2022/09/14 11:23:55;;;;;;;5.00;1.60;;;;;;;20.09;62.79;99515.20;1693681;83;21503;-80
2022/09/14 11:26:37;;;;;;;6.53;2.10;;;;;;;20.09;62.66;99515.20;1718254;83;21114;-80
2022/09/14 11:29:24;;;;;;;8.65;1.80;;;;;;;20.18;62.58;99508.81;1721717;83;21031;-80
2022/09/14 11:31:55;;;;;;;8.00;1.80;;;;;;;20.15;62.44;99505.26;1700021;83;21566;-79
2022/09/14 11:34:41;;;;;;;6.78;1.82;;;;;;;20.06;62.28;99503.52;1699120;83;21648;-79
2022/09/14 11:37:15;;;;;;;4.78;1.50;;;;;;;20.00;62.20;99504.55;1711260;83;21061;-80
2022/09/14 11:40:17;;;;;;;3.05;1.22;;;;;;;20.06;62.19;99503.52;1713467;83;21075;-80
2022/09/14 11:42:57;;;;;;;7.97;2.00;;;;;;;20.18;62.13;99502.04;1723082;82;21582;-79
2022/09/14 11:45:42;;;;;;;7.80;2.00;;;;;;;20.33;62.04;99499.00;1713431;82;21585;-79
2022/09/14 11:48:23;;;;;;;5.25;1.55;;;;;;;20.40;61.97;99506.39;1732195;82;21078;-80